Time;durP1;ratioP1;P1;durP2;ratioP2;P2;SDS_P1;SDS_P2;PMS_P1;PMS_P2;Temp;Humidity;BMP_temperature;BMP_pressure;BME280_temperature;BME280_humidity;BME280_pressure;Samples;Min_cycle;Max_cycle;Signal;HPM_P1;HPM_P2
2022/10/02 00:01:24;;;;;;;;;;;;;;;20.96;59.68;100604.78;5035794;28;4160;-59
2022/10/02 00:03:50;;;;;;;;;;;;;;;20.96;59.52;100604.78;5045938;28;4514;-60
2022/10/02 00:06:19;;;;;;;;;;;;;;;20.95;60.04;100606.94;5045328;28;5214;-59
2022/10/02 00:08:45;;;;;;;;;;;;;;;20.95;59.87;100604.06;5045219;28;4200;-59
2022/10/02 00:11:11;;;;;;;;;;;;;;;20.95;59.93;100606.94;5042644;28;4007;-59
2022/10/02 00:13:39;;;;;;;;;;;;;;;20.97;59.52;100609.16;5041462;28;4195;-59
2022/10/02 00:16:06;;;;;;;;;;;;;;;20.96;59.78;100619.19;5043211;28;4251;-59
2022/10/02 00:18:33;;;;;;;;;;;;;;;20.97;59.57;100612.03;5043537;28;4172;-60
2022/10/02 00:21:02;;;;;;;;;;;;;;;20.95;59.70;100615.56;5042177;28;4747;-59
2022/10/02 00:23:31;;;;;;;;;;;;;;;20.94;59.70;100614.09;5037159;28;5604;-59
2022/10/02 00:26:02;;;;;;;;;;;;;;;20.97;59.64;100612.78;5028880;28;4248;-59
2022/10/02 00:28:34;;;;;;;;;;;;;;;20.94;59.97;100625.63;5029470;28;4218;-59
2022/10/02 00:31:04;;;;;;;;;;;;;;;20.95;59.81;100626.34;5050593;28;4161;-60
2022/10/02 00:33:35;;;;;;;;;;;;;;;20.95;59.74;100617.72;5045504;28;4392;-59
2022/10/02 00:36:03;;;;;;;;;;;;;;;20.97;59.47;100621.41;5033166;28;4258;-59
2022/10/02 00:38:30;;;;;;;;;;;;;;;20.96;59.59;100622.81;5047457;28;4178;-59
2022/10/02 00:41:06;;;;;;;;;;;;;;;20.95;59.85;100626.34;5039163;28;4335;-59
2022/10/02 00:43:35;;;;;;;;;;;;;;;20.93;59.76;100630.59;5047320;28;4348;-59
2022/10/02 00:46:14;;;;;;;;;;;;;;;20.94;59.56;100628.50;5028997;28;5479;-59
2022/10/02 00:48:43;;;;;;;;;;;;;;;20.96;59.74;100627.81;5041062;28;4137;-59
2022/10/02 00:51:20;;;;;;;;;;;;;;;20.95;59.48;100627.09;5047600;28;4149;-59
2022/10/02 00:53:54;;;;;;;;;;;;;;;20.92;59.79;100629.16;5049811;28;4196;-59
2022/10/02 00:56:27;;;;;;;;;;;;;;;20.93;59.73;100624.84;5041299;28;4167;-59
2022/10/02 00:58:53;;;;;;;;;;;;;;;20.93;59.69;100624.84;5053779;28;4237;-59
2022/10/02 01:01:33;;;;;;;;;;;;;;;20.96;59.63;100639.34;5051494;28;5263;-59
2022/10/02 01:04:00;;;;;;;;;;;;;;;20.92;59.51;100634.16;5041639;28;4267;-59
2022/10/02 01:06:27;;;;;;;;;;;;;;;20.91;59.74;100644.94;5052624;28;4210;-59
2022/10/02 01:08:53;;;;;;;;;;;;;;;20.93;59.39;100642.13;5055114;28;4388;-59
2022/10/02 01:11:20;;;;;;;;;;;;;;;20.93;59.44;100653.63;5051687;28;5091;-59
2022/10/02 01:13:46;;;;;;;;;;;;;;;20.93;59.67;100656.50;5036531;28;5681;-59
2022/10/02 01:16:13;;;;;;;;;;;;;;;20.93;59.53;100642.13;5058301;28;5289;-59
2022/10/02 01:18:39;;;;;;;;;;;;;;;20.93;59.47;100650.03;5048550;28;4259;-60
2022/10/02 01:21:11;;;;;;;;;;;;;;;20.92;59.56;100652.16;5064103;28;4491;-59
2022/10/02 01:23:40;;;;;;;;;;;;;;;20.93;59.60;100652.91;5054659;28;5215;-59
2022/10/02 01:26:06;;;;;;;;;;;;;;;20.93;59.58;100664.41;5054631;28;4208;-59
2022/10/02 01:28:32;;;;;;;;;;;;;;;20.94;59.18;100654.41;5049277;28;4166;-59
2022/10/02 01:31:00;;;;;;;;;;;;;;;20.91;59.58;100667.97;5043461;28;5378;-59
2022/10/02 01:33:26;;;;;;;;;;;;;;;20.91;59.67;100667.97;5047075;28;5303;-59
2022/10/02 01:35:53;;;;;;;;;;;;;;;20.90;59.79;100660.72;5037336;28;4029;-59
2022/10/02 01:38:20;;;;;;;;;;;;;;;20.92;59.48;100669.44;5042889;28;4162;-59
2022/10/02 01:40:46;;;;;;;;;;;;;;;20.92;59.60;100666.56;5022665;28;4887;-59
2022/10/02 01:43:23;;;;;;;;;;;;;;;20.90;59.51;100672.22;5030414;28;4193;-59
2022/10/02 01:46:08;;;;;;;;;;;;;;;20.91;59.54;100665.09;5042282;28;4399;-59
2022/10/02 01:48:44;;;;;;;;;;;;;;;20.89;59.71;100665.00;5040686;28;4439;-59
2022/10/02 01:51:11;;;;;;;;;;;;;;;20.90;59.49;100669.34;5042866;28;4075;-60
2022/10/02 01:53:43;;;;;;;;;;;;;;;20.91;59.40;100673.72;5027888;28;4215;-59
2022/10/02 01:56:23;;;;;;;;;;;;;;;20.92;59.01;100669.44;5038069;28;4070;-60
2022/10/02 01:59:16;;;;;;;;;;;;;;;20.92;59.24;100675.19;5045468;28;6077;-59
2022/10/02 02:01:46;;;;;;;;;;;;;;;20.91;59.46;100673.72;5030400;28;5393;-59
2022/10/02 02:04:21;;;;;;;;;;;;;;;20.91;59.46;100679.47;5043556;28;4394;-59
2022/10/02 02:06:53;;;;;;;;;;;;;;;20.89;59.49;100682.28;5041693;28;4193;-59
2022/10/02 02:09:22;;;;;;;;;;;;;;;20.90;59.51;100686.63;5041496;28;4229;-59
2022/10/02 02:11:53;;;;;;;;;;;;;;;20.88;59.75;100692.28;5042240;28;5452;-60
2022/10/02 02:14:23;;;;;;;;;;;;;;;20.89;59.62;100682.28;5042941;28;4379;-59
2022/10/02 02:16:51;;;;;;;;;;;;;;;20.89;59.43;100693.03;5039504;28;4248;-60
2022/10/02 02:19:17;;;;;;;;;;;;;;;20.90;59.20;100695.25;5038579;28;4138;-59
2022/10/02 02:21:54;;;;;;;;;;;;;;;20.90;59.05;100689.50;5039316;28;4180;-59
2022/10/02 02:24:23;;;;;;;;;;;;;;;20.91;59.08;100687.34;5029581;28;5371;-59
2022/10/02 02:26:49;;;;;;;;;;;;;;;20.89;59.38;100699.53;5037632;28;4262;-59
2022/10/02 02:29:15;;;;;;;;;;;;;;;20.86;59.53;100692.19;5038575;28;4259;-59
2022/10/02 02:31:43;;;;;;;;;;;;;;;20.88;59.28;100695.16;5033541;28;4176;-59
2022/10/02 02:34:10;;;;;;;;;;;;;;;20.89;59.14;100687.28;5040196;28;4083;-59
2022/10/02 02:36:39;;;;;;;;;;;;;;;20.89;59.59;100693.03;5036437;28;4180;-59
2022/10/02 02:39:08;;;;;;;;;;;;;;;20.90;58.96;100689.50;5042067;28;4284;-59
2022/10/02 02:41:38;;;;;;;;;;;;;;;20.89;59.30;100693.78;5042856;28;4230;-60
2022/10/02 02:44:13;;;;;;;;;;;;;;;20.89;59.41;100693.78;5032735;28;4148;-59
2022/10/02 02:49:26;;;;;;;;;;;;;;;20.92;59.58;100694.59;5039681;28;5521;-59
2022/10/02 02:51:53;;;;;;;;;;;;;;;20.95;59.51;100701.19;5044705;28;5320;-59
2022/10/02 02:54:23;;;;;;;;;;;;;;;20.95;59.66;100709.81;5037846;28;4055;-59
2022/10/02 02:56:49;;;;;;;;;;;;;;;20.97;59.49;100698.41;5038840;28;4268;-59
2022/10/02 02:59:15;;;;;;;;;;;;;;;20.97;59.53;100699.13;5045390;28;4463;-60
2022/10/02 03:01:42;;;;;;;;;;;;;;;20.96;59.56;100694.03;5022995;28;6275;-60
2022/10/02 03:04:09;;;;;;;;;;;;;;;20.96;59.87;100705.53;5020903;28;5483;-60
2022/10/02 03:06:36;;;;;;;;;;;;;;;20.97;59.58;100701.28;5044482;28;5273;-59
2022/10/02 03:09:04;;;;;;;;;;;;;;;20.98;59.66;100705.63;5041046;28;5575;-59
2022/10/02 03:11:49;;;;;;;;;;;;;;;20.97;59.66;100704.16;5042629;28;4382;-59
2022/10/02 03:14:27;;;;;;;;;;;;;;;20.98;59.76;100711.38;5027518;28;4187;-59
2022/10/02 03:16:56;;;;;;;;;;;;;;;20.98;59.75;100717.13;5045912;28;4081;-59
2022/10/02 03:19:27;;;;;;;;;;;;;;;20.97;59.91;100715.66;5043345;28;5285;-59
2022/10/02 03:21:53;;;;;;;;;;;;;;;20.98;59.83;100714.25;5045494;28;5512;-59
2022/10/02 03:24:21;;;;;;;;;;;;;;;20.97;59.93;100712.78;5039393;28;5274;-59
2022/10/02 03:27:04;;;;;;;;;;;;;;;20.99;59.72;100721.50;5024839;28;5303;-59
2022/10/02 03:29:34;;;;;;;;;;;;;;;21.00;59.50;100722.97;5038780;28;4242;-65
2022/10/02 03:32:00;;;;;;;;;;;;;;;21.02;59.42;100720.19;5054478;28;4067;-63
2022/10/02 03:34:26;;;;;;;;;;;;;;;21.04;59.02;100717.41;5033968;28;4128;-61
2022/10/02 03:36:53;;;;;;;;;;;;;;;20.99;59.23;100724.38;5047336;28;4433;-61
2022/10/02 03:39:20;;;;;;;;;;;;;;;21.00;59.17;100725.84;5046214;28;4180;-60
2022/10/02 03:41:51;;;;;;;;;;;;;;;21.01;59.74;100724.47;5047340;28;4192;-61
2022/10/02 03:44:17;;;;;;;;;;;;;;;21.01;60.06;100733.84;5044254;28;4238;-61
2022/10/02 03:46:43;;;;;;;;;;;;;;;21.03;60.00;100728.19;5041932;28;4234;-60
2022/10/02 03:49:10;;;;;;;;;;;;;;;21.02;60.37;100728.81;5052075;28;5188;-61
2022/10/02 03:51:36;;;;;;;;;;;;;;;21.03;60.18;100730.31;5046213;28;4201;-61
2022/10/02 03:54:04;;;;;;;;;;;;;;;21.04;60.45;100723.16;5048240;28;4201;-61
2022/10/02 03:56:34;;;;;;;;;;;;;;;21.03;59.83;100731.06;5045862;28;4590;-61
2022/10/02 03:59:02;;;;;;;;;;;;;;;21.03;60.53;100724.56;5038280;28;4230;-61
2022/10/02 04:01:32;;;;;;;;;;;;;;;21.02;60.32;100717.31;5050554;28;4533;-61
2022/10/02 04:04:18;;;;;;;;;;;;;;;21.03;60.41;100718.81;5047766;28;4259;-61
2022/10/02 04:07:01;;;;;;;;;;;;;;;21.04;60.41;100720.28;5033348;28;4201;-61
2022/10/02 04:09:32;;;;;;;;;;;;;;;21.04;60.32;100720.28;5031011;28;4248;-60
2022/10/02 04:12:00;;;;;;;;;;;;;;;21.07;59.99;100724.72;5044059;28;4235;-61
2022/10/02 04:14:27;;;;;;;;;;;;;;;21.07;59.94;100731.22;5041478;28;4133;-61
2022/10/02 04:17:03;;;;;;;;;;;;;;;21.08;59.94;100724.06;5038987;28;4105;-61
2022/10/02 04:19:33;;;;;;;;;;;;;;;21.11;60.20;100727.75;5043283;28;5552;-61
2022/10/02 04:22:18;;;;;;;;;;;;;;;21.11;59.84;100733.53;5036308;28;4321;-61
2022/10/02 04:24:46;;;;;;;;;;;;;;;21.10;60.25;100735.66;5043749;28;4455;-61
2022/10/02 04:27:14;;;;;;;;;;;;;;;21.11;60.61;100742.16;5041272;28;4308;-61
2022/10/02 04:29:42;;;;;;;;;;;;;;;21.10;60.21;100741.41;5052437;28;5414;-61
2022/10/02 04:32:24;;;;;;;;;;;;;;;21.10;60.46;100741.41;5049857;28;4054;-61
2022/10/02 04:34:51;;;;;;;;;;;;;;;21.11;60.40;100747.91;5013238;28;5315;-61
2022/10/02 04:37:36;;;;;;;;;;;;;;;21.10;60.13;100752.22;5030818;28;4286;-61
2022/10/02 04:40:07;;;;;;;;;;;;;;;21.11;60.35;100740.00;5032290;28;5279;-61
2022/10/02 04:42:51;;;;;;;;;;;;;;;21.11;60.35;100742.16;5015427;28;5234;-61
2022/10/02 04:45:57;;;;;;;;;;;;;;;21.09;60.56;100739.94;5018497;28;4188;-61
2022/10/02 04:48:33;;;;;;;;;;;;;;;21.10;60.67;100749.31;4960128;28;4233;-60
2022/10/02 04:50:59;;;;;;;;;;;;;;;21.10;60.36;100757.97;4968305;28;4268;-61
2022/10/02 04:53:38;;;;;;;;;;;;;;;21.08;60.59;100743.47;5012497;28;4213;-60
2022/10/02 04:56:25;;;;;;;;;;;;;;;21.07;60.58;100748.50;5042241;28;4205;-61
2022/10/02 04:58:55;;;;;;;;;;;;;;;21.08;60.70;100744.22;5047986;28;4149;-61
2022/10/02 05:01:39;;;;;;;;;;;;;;;21.06;60.60;100743.41;5039091;28;4047;-61
2022/10/02 05:04:18;;;;;;;;;;;;;;;21.06;60.48;100746.28;5039210;28;4204;-61
2022/10/02 05:06:49;;;;;;;;;;;;;;;21.06;60.54;100741.25;5049783;28;4089;-61
2022/10/02 05:09:20;;;;;;;;;;;;;;;21.03;60.69;100750.47;5052477;28;4376;-61
2022/10/02 05:11:58;;;;;;;;;;;;;;;21.02;61.03;100748.97;5039679;28;4356;-61
2022/10/02 05:14:43;;;;;;;;;;;;;;;21.04;60.79;100755.56;5041036;28;4503;-61
2022/10/02 05:17:19;;;;;;;;;;;;;;;21.03;60.93;100759.84;5024638;28;4474;-61
2022/10/02 05:20:02;;;;;;;;;;;;;;;21.02;60.60;100769.13;5025734;28;4280;-61
2022/10/02 05:22:33;;;;;;;;;;;;;;;21.02;60.90;100763.38;5029688;28;4533;-61
2022/10/02 05:25:08;;;;;;;;;;;;;;;21.03;60.74;100759.09;5037944;28;4031;-61
2022/10/02 05:27:40;;;;;;;;;;;;;;;21.03;60.86;100767.75;5033948;28;4225;-61
2022/10/02 05:30:10;;;;;;;;;;;;;;;21.04;60.59;100772.09;5041396;28;4914;-61
2022/10/02 05:32:55;;;;;;;;;;;;;;;21.00;61.01;100766.91;5049337;28;4655;-61
2022/10/02 05:35:25;;;;;;;;;;;;;;;21.00;60.78;100769.03;5036550;28;4230;-61
2022/10/02 05:37:57;;;;;;;;;;;;;;;21.00;60.82;100774.78;5035626;28;4244;-61
2022/10/02 05:40:30;;;;;;;;;;;;;;;20.99;60.77;100771.19;5042537;28;4344;-60
2022/10/02 05:43:09;;;;;;;;;;;;;;;21.00;60.82;100766.16;5048273;28;4196;-61
2022/10/02 05:45:54;;;;;;;;;;;;;;;21.01;60.51;100773.41;5046055;28;4261;-60
2022/10/02 05:48:20;;;;;;;;;;;;;;;20.98;61.06;100780.47;5044709;28;4517;-61
2022/10/02 05:50:48;;;;;;;;;;;;;;;20.99;60.91;100793.47;5041946;28;5495;-61
2022/10/02 05:53:35;;;;;;;;;;;;;;;20.96;60.88;100784.00;5043345;28;4304;-60
2022/10/02 05:56:04;;;;;;;;;;;;;;;20.96;60.91;100778.25;5047853;28;4154;-60
2022/10/02 05:58:33;;;;;;;;;;;;;;;20.98;60.51;100792.75;5041930;28;4289;-61
2022/10/02 06:01:05;;;;;;;;;;;;;;;21.01;59.99;100779.16;5046483;28;5167;-61
2022/10/02 06:03:34;;;;;;;;;;;;;;;21.01;60.05;100785.66;5041093;28;4231;-61
2022/10/02 06:06:16;;;;;;;;;;;;;;;21.01;60.17;100784.94;5033569;28;4189;-61
2022/10/02 06:08:43;;;;;;;;;;;;;;;21.01;60.24;100779.16;5039473;28;4213;-61
2022/10/02 06:11:10;;;;;;;;;;;;;;;20.99;60.23;100779.09;5039383;28;4273;-61
2022/10/02 06:13:42;;;;;;;;;;;;;;;20.99;60.16;100784.84;5037514;28;4183;-61
2022/10/02 06:16:10;;;;;;;;;;;;;;;20.98;60.42;100789.09;5034495;28;4025;-61
2022/10/02 06:18:37;;;;;;;;;;;;;;;20.98;60.37;100794.84;5033102;28;4037;-61
2022/10/02 06:21:03;;;;;;;;;;;;;;;20.97;60.04;100799.16;5037571;28;5330;-62
2022/10/02 06:23:31;;;;;;;;;;;;;;;20.87;60.34;100800.19;5026430;28;4159;-58
2022/10/02 06:26:02;;;;;;;;;;;;;;;20.93;60.15;100800.44;5041940;28;3974;-60
2022/10/02 06:28:32;;;;;;;;;;;;;;;20.92;60.11;100790.31;5036469;28;4280;-59
2022/10/02 06:31:03;;;;;;;;;;;;;;;20.90;59.76;100798.88;5037758;28;4251;-60
2022/10/02 06:33:30;;;;;;;;;;;;;;;20.85;60.14;100805.84;5026686;28;4247;-60
2022/10/02 06:36:02;;;;;;;;;;;;;;;20.93;60.17;100806.19;5036222;28;4258;-62
2022/10/02 06:38:47;;;;;;;;;;;;;;;20.93;60.19;100800.44;5034086;28;4186;-62
2022/10/02 06:41:19;;;;;;;;;;;;;;;20.92;60.34;100810.47;5040251;28;4299;-62
2022/10/02 06:43:54;;;;;;;;;;;;;;;20.87;60.47;100810.97;5041225;28;4050;-61
2022/10/02 06:46:24;;;;;;;;;;;;;;;20.92;59.89;100798.97;5041481;28;4231;-58
2022/10/02 06:48:54;;;;;;;;;;;;;;;20.88;60.02;100800.94;5035862;28;5173;-58
2022/10/02 06:51:24;;;;;;;;;;;;;;;20.92;59.95;100801.84;5041918;28;4202;-58
2022/10/02 06:54:05;;;;;;;;;;;;;;;20.88;60.04;100807.41;5038140;28;4233;-65
2022/10/02 06:56:44;;;;;;;;;;;;;;;20.57;58.20;100801.72;5035443;28;4317;-59
2022/10/02 06:59:26;;;;;;;;;;;;;;;20.35;57.59;100790.66;5029261;28;4265;-60
2022/10/02 07:02:02;;;;;;;;;;;;;;;20.62;57.21;100791.91;5035181;28;5233;-60
2022/10/02 07:04:47;;;;;;;;;;;;;;;20.77;57.19;100796.84;5037693;28;4196;-60
2022/10/02 07:07:24;;;;;;;;;;;;;;;20.83;57.60;100791.38;5035606;28;4423;-59
2022/10/02 07:10:10;;;;;;;;;;;;;;;20.85;58.24;100797.22;5037861;28;4152;-59
2022/10/02 07:12:40;;;;;;;;;;;;;;;20.87;58.77;100799.47;5046250;28;5232;-60
2022/10/02 07:15:28;;;;;;;;;;;;;;;20.88;59.12;100801.66;5044317;28;5437;-59
2022/10/02 07:17:57;;;;;;;;;;;;;;;20.89;59.17;100796.63;5047417;28;4152;-59
2022/10/02 07:20:31;;;;;;;;;;;;;;;20.88;59.48;100801.66;5048635;28;5299;-60
2022/10/02 07:23:05;;;;;;;;;;;;;;;20.85;59.77;100802.97;5044974;28;4193;-60
2022/10/02 07:25:45;;;;;;;;;;;;;;;20.88;59.45;100795.16;5041597;28;4120;-59
2022/10/02 07:28:32;;;;;;;;;;;;;;;20.88;59.48;100807.41;5044698;28;4111;-59
2022/10/02 07:31:19;;;;;;;;;;;;;;;20.89;59.59;100808.91;5042588;28;5403;-60
2022/10/02 07:33:54;;;;;;;;;;;;;;;20.90;59.59;100810.38;5028162;28;4195;-59
2022/10/02 07:36:40;;;;;;;;;;;;;;;20.89;59.59;100806.03;5037579;28;7011;-59
2022/10/02 07:39:25;;;;;;;;;;;;;;;20.89;59.78;100814.69;5038676;28;5230;-60
2022/10/02 07:42:18;;;;;;;;;;;;;;;20.88;59.58;100813.19;5038745;28;4230;-60
2022/10/02 07:45:03;;;;;;;;;;;;;;;20.88;59.68;100813.19;5017676;28;4077;-60
2022/10/02 07:47:34;;;;;;;;;;;;;;;20.88;59.86;100812.44;5035090;28;4155;-60
2022/10/02 07:50:06;;;;;;;;;;;;;;;20.89;59.58;100811.78;5045741;28;4276;-59
2022/10/02 07:52:45;;;;;;;;;;;;;;;20.89;59.64;100811.78;5039539;28;4185;-59
2022/10/02 07:55:15;;;;;;;;;;;;;;;20.91;59.46;100817.63;5045001;28;4232;-59
2022/10/02 07:57:51;;;;;;;;;;;;;;;20.89;59.92;100826.19;5035784;28;4544;-60
2022/10/02 08:00:17;;;;;;;;;;;;;;;20.89;59.58;100820.44;5041669;28;4153;-59
2022/10/02 08:02:48;;;;;;;;;;;;;;;20.91;59.53;100817.63;5044314;28;4145;-59
2022/10/02 08:05:22;;;;;;;;;;;;;;;20.90;59.70;100821.91;5048548;28;4141;-59
2022/10/02 08:07:50;;;;;;;;;;;;;;;20.92;59.48;100816.22;5039940;28;5363;-59
2022/10/02 08:10:17;;;;;;;;;;;;;;;20.91;59.58;100811.13;5051164;28;6382;-59
2022/10/02 08:12:46;;;;;;;;;;;;;;;20.87;60.01;100805.22;5046635;28;4183;-59
2022/10/02 08:15:14;;;;;;;;;;;;;;;20.85;60.04;100802.97;5041703;28;4298;-59
2022/10/02 08:17:44;;;;;;;;;;;;;;;20.86;60.06;100804.44;5035056;28;5228;-59
2022/10/02 08:20:17;;;;;;;;;;;;;;;20.87;59.96;100800.19;5044828;28;4167;-59
2022/10/02 08:22:51;;;;;;;;;;;;;;;20.87;59.80;100814.59;5045032;28;4030;-59
2022/10/02 08:25:24;;;;;;;;;;;;;;;20.89;59.76;100811.78;5046960;28;4081;-59
2022/10/02 08:27:58;;;;;;;;;;;;;;;20.90;59.86;100801.75;5028743;28;4105;-59
2022/10/02 08:30:25;;;;;;;;;;;;;;;20.89;59.87;100803.16;5024877;28;5350;-58
2022/10/02 08:32:52;;;;;;;;;;;;;;;20.90;59.93;100796.00;5030221;28;5249;-59
2022/10/02 08:35:18;;;;;;;;;;;;;;;20.90;59.89;100798.88;5028302;28;4395;-59
2022/10/02 08:37:44;;;;;;;;;;;;;;;20.91;59.87;100806.13;5025197;28;5542;-59
2022/10/02 08:40:30;;;;;;;;;;;;;;;20.92;59.85;100801.84;5017492;28;5328;-59
2022/10/02 08:43:16;;;;;;;;;;;;;;;20.90;59.68;100798.88;5030859;28;4229;-59
2022/10/02 08:45:48;;;;;;;;;;;;;;;20.90;59.68;100793.13;5018397;28;4150;-59
2022/10/02 08:48:22;;;;;;;;;;;;;;;20.89;59.96;100793.75;5021254;28;4180;-59
2022/10/02 08:50:58;;;;;;;;;;;;;;;20.89;59.93;100797.41;5022376;28;3953;-59
2022/10/02 08:53:43;;;;;;;;;;;;;;;20.90;59.89;100787.38;5022523;28;4227;-59
2022/10/02 08:56:12;;;;;;;;;;;;;;;20.89;59.91;100802.41;5017523;28;6589;-59
2022/10/02 08:58:49;;;;;;;;;;;;;;;20.89;59.88;100800.28;5023233;28;6226;-60
2022/10/02 09:01:35;;;;;;;;;;;;;;;20.90;59.77;100807.50;5027917;28;5430;-59
2022/10/02 09:04:20;;;;;;;;;;;;;;;20.90;59.71;100810.38;5033959;28;4169;-59
2022/10/02 09:07:07;;;;;;;;;;;;;;;20.92;59.60;100813.34;5034285;28;4205;-59
2022/10/02 09:09:39;;;;;;;;;;;;;;;20.88;59.97;100824.69;5035696;28;4125;-59
2022/10/02 09:12:20;;;;;;;;;;;;;;;20.88;59.93;100810.28;5035961;28;5363;-59
2022/10/02 09:14:59;;;;;;;;;;;;;;;20.88;59.71;100818.19;5036158;28;4434;-60
2022/10/02 09:17:34;;;;;;;;;;;;;;;20.89;59.76;100808.16;5033843;28;4200;-59
2022/10/02 09:20:03;;;;;;;;;;;;;;;20.87;59.82;100814.59;5030531;28;4101;-59
2022/10/02 09:22:30;;;;;;;;;;;;;;;20.86;59.76;100810.19;5016361;28;4220;-60
2022/10/02 09:25:08;;;;;;;;;;;;;;;20.89;60.00;100808.91;5027555;28;5139;-59
2022/10/02 09:27:49;;;;;;;;;;;;;;;20.90;59.48;100807.50;5016961;28;5304;-61
2022/10/02 09:30:21;;;;;;;;;;;;;;;20.89;59.54;100791.66;5014978;28;4137;-59
2022/10/02 09:33:06;;;;;;;;;;;;;;;20.93;59.39;100786.03;5017874;28;4181;-62
2022/10/02 09:35:46;;;;;;;;;;;;;;;20.96;59.43;100791.88;5019241;28;4581;-61
2022/10/02 09:38:20;;;;;;;;;;;;;;;21.08;60.00;100783.78;5016967;28;3945;-60
2022/10/02 09:40:57;;;;;;;;;;;;;;;21.21;58.98;100785.78;4996885;28;5523;-59
2022/10/02 09:43:35;;;;;;;;;;;;;;;21.15;59.31;100779.03;5017447;28;4566;-62
2022/10/02 09:46:21;;;;;;;;;;;;;;;21.05;59.46;100773.56;5010519;28;4171;-61
2022/10/02 09:49:05;;;;;;;;;;;;;;;21.05;59.29;100785.84;5004516;28;4422;-62
2022/10/02 09:51:43;;;;;;;;;;;;;;;21.08;59.61;100783.78;5024970;28;5573;-61
2022/10/02 09:54:13;;;;;;;;;;;;;;;21.07;59.33;100783.06;5021100;28;4196;-62
2022/10/02 09:56:59;;;;;;;;;;;;;;;21.08;59.47;100789.53;5010103;28;4732;-62
2022/10/02 09:59:32;;;;;;;;;;;;;;;21.07;59.65;100793.81;5018405;28;4596;-62
2022/10/02 10:02:06;;;;;;;;;;;;;;;21.06;59.79;100803.84;5019565;28;4145;-62
2022/10/02 10:04:45;;;;;;;;;;;;;;;21.07;59.48;100811.09;5026498;28;4356;-62
2022/10/02 10:07:35;;;;;;;;;;;;;;;21.08;59.54;100818.34;5026515;28;4243;-62
2022/10/02 10:10:10;;;;;;;;;;;;;;;21.06;59.63;100826.88;5023199;28;4244;-62
2022/10/02 10:12:53;;;;;;;;;;;;;;;21.01;59.75;100825.22;5021328;28;4183;-62
2022/10/02 10:15:43;;;;;;;;;;;;;;;21.05;59.66;100814.63;5024908;28;4262;-62
2022/10/02 10:18:16;;;;;;;;;;;;;;;21.06;59.79;100815.38;5020411;28;4041;-62
2022/10/02 10:21:01;;;;;;;;;;;;;;;21.05;59.68;100819.63;5024600;28;4178;-62
2022/10/02 10:23:29;;;;;;;;;;;;;;;21.06;59.84;100816.09;5014860;28;4183;-62
2022/10/02 10:26:00;;;;;;;;;;;;;;;21.10;59.56;100812.66;5018478;28;4244;-62
2022/10/02 10:28:44;;;;;;;;;;;;;;;21.11;59.57;100806.25;5024279;28;5340;-61
2022/10/02 10:31:49;;;;;;;;;;;;;;;21.14;59.29;100812.81;5020851;28;4248;-61
2022/10/02 10:34:34;;;;;;;;;;;;;;;21.16;58.97;100801.38;5019286;28;4493;-62
2022/10/02 10:40:07;;;;;;;;;;;;;;;21.19;58.96;100805.09;5040087;28;4665;-61
2022/10/02 10:42:49;;;;;;;;;;;;;;;21.20;59.19;100807.31;5025686;28;4527;-61
2022/10/02 10:45:42;;;;;;;;;;;;;;;21.21;59.03;100805.19;5026302;28;4023;-61
2022/10/02 10:48:27;;;;;;;;;;;;;;;21.20;58.88;100801.56;5014589;28;4117;-62
2022/10/02 10:51:00;;;;;;;;;;;;;;;21.19;58.97;100805.84;5021158;28;4179;-61
2022/10/02 10:53:29;;;;;;;;;;;;;;;21.22;59.14;100798.03;5023575;28;4222;-60
2022/10/02 10:56:08;;;;;;;;;;;;;;;21.20;59.04;100792.94;5021849;28;4256;-60
2022/10/02 10:58:42;;;;;;;;;;;;;;;21.21;59.07;100799.41;5017993;28;4226;-63
2022/10/02 11:01:13;;;;;;;;;;;;;;;21.20;59.16;100797.94;5018907;28;4226;-63
2022/10/02 11:04:00;;;;;;;;;;;;;;;21.19;59.17;100805.84;5007733;28;4198;-60
2022/10/02 11:06:55;;;;;;;;;;;;;;;21.19;59.33;100805.09;5024090;28;5096;-60
2022/10/02 11:09:21;;;;;;;;;;;;;;;21.20;59.17;100823.88;5010195;28;4077;-61
2022/10/02 11:12:07;;;;;;;;;;;;;;;21.19;59.59;100820.25;5022329;28;3983;-61
2022/10/02 11:14:40;;;;;;;;;;;;;;;21.15;59.44;100816.47;5016933;28;4172;-61
2022/10/02 11:17:16;;;;;;;;;;;;;;;21.16;59.58;100818.66;5019054;28;4084;-61
2022/10/02 11:20:01;;;;;;;;;;;;;;;21.18;59.52;100823.78;5018992;28;4373;-61
2022/10/02 11:22:30;;;;;;;;;;;;;;;21.18;59.46;100838.91;5022092;28;4183;-61
2022/10/02 11:25:07;;;;;;;;;;;;;;;21.17;59.56;100823.03;5021350;28;4200;-61
2022/10/02 11:27:38;;;;;;;;;;;;;;;21.16;59.31;100807.16;5021208;28;4217;-61
2022/10/02 11:30:08;;;;;;;;;;;;;;;21.17;59.40;100805.03;5020934;28;4528;-61
2022/10/02 11:32:54;;;;;;;;;;;;;;;21.30;59.01;100810.66;5018744;28;4184;-62
2022/10/02 11:35:22;;;;;;;;;;;;;;;21.29;59.02;100802.66;5012955;28;4241;-61
2022/10/02 11:38:01;;;;;;;;;;;;;;;21.37;58.79;100808.00;5014713;28;4077;-61
2022/10/02 11:40:50;;;;;;;;;;;;;;;21.19;59.33;100799.34;5024405;28;5186;-62
2022/10/02 11:43:21;;;;;;;;;;;;;;;21.16;59.31;100804.28;5013420;28;4048;-61
2022/10/02 11:46:07;;;;;;;;;;;;;;;21.16;59.43;100807.16;5020229;28;4349;-62
2022/10/02 11:48:37;;;;;;;;;;;;;;;21.18;59.24;100792.84;5015602;28;4561;-61
2022/10/02 11:51:10;;;;;;;;;;;;;;;21.18;59.23;100797.88;5023142;28;4151;-61
2022/10/02 11:53:56;;;;;;;;;;;;;;;21.19;59.24;100794.34;5019242;28;5265;-61
2022/10/02 11:56:35;;;;;;;;;;;;;;;21.18;59.20;100792.84;5020320;28;4294;-61
2022/10/02 11:59:33;;;;;;;;;;;;;;;21.22;59.10;100793.00;5008178;28;4320;-62
2022/10/02 12:02:04;;;;;;;;;;;;;;;21.21;59.19;100791.53;5000127;28;4245;-63
2022/10/02 12:04:51;;;;;;;;;;;;;;;21.25;59.19;100800.34;5019470;28;4204;-61
2022/10/02 12:07:23;;;;;;;;;;;;;;;21.23;59.41;100793.75;5019335;28;4545;-61
2022/10/02 12:10:02;;;;;;;;;;;;;;;21.24;59.27;100793.09;5019227;28;4444;-62
2022/10/02 12:12:28;;;;;;;;;;;;;;;21.26;59.26;100798.22;5019776;28;4132;-61
2022/10/02 12:15:03;;;;;;;;;;;;;;;21.26;59.09;100798.22;5017393;28;4162;-62
2022/10/02 12:17:41;;;;;;;;;;;;;;;21.27;59.32;100806.19;5004113;28;4274;-62
2022/10/02 12:28:54;;;;;;;;;;;;;;;21.33;59.85;100803.56;5018087;28;5100;-61
2022/10/02 12:31:31;;;;;;;;;;;;;;;21.33;60.29;100809.31;5015216;28;4402;-64
2022/10/02 12:34:08;;;;;;;;;;;;;;;21.33;60.21;100809.31;5021055;28;5296;-61
2022/10/02 12:36:43;;;;;;;;;;;;;;;21.33;60.33;100799.94;5017764;28;4140;-62
2022/10/02 12:39:16;;;;;;;;;;;;;;;21.32;60.93;100807.09;5028889;28;4227;-61
2022/10/02 12:41:52;;;;;;;;;;;;;;;21.30;60.74;100807.75;5027105;28;5295;-61
2022/10/02 12:44:24;;;;;;;;;;;;;;;21.33;60.93;100811.47;5021726;28;4030;-62
2022/10/02 12:46:58;;;;;;;;;;;;;;;21.32;61.09;100809.97;5024545;28;4369;-61
2022/10/02 12:49:35;;;;;;;;;;;;;;;21.33;61.28;100815.09;5025508;28;4127;-61
2022/10/02 12:52:11;;;;;;;;;;;;;;;21.38;61.37;100815.25;5017824;28;4433;-62
2022/10/02 12:54:43;;;;;;;;;;;;;;;21.43;61.07;100809.03;5016653;28;5229;-61
2022/10/02 12:57:50;;;;;;;;;;;;;;;21.48;61.34;100809.94;5024828;28;5441;-61
2022/10/02 13:00:20;;;;;;;;;;;;;;;21.44;61.19;100795.34;5026554;28;4135;-60
2022/10/02 13:03:05;;;;;;;;;;;;;;;21.45;61.47;100796.84;5035931;28;4903;-61
2022/10/02 13:05:50;;;;;;;;;;;;;;;21.45;61.46;100796.84;5027083;28;4035;-62
2022/10/02 13:08:23;;;;;;;;;;;;;;;21.49;61.54;100802.78;5027233;28;4017;-62
2022/10/02 13:10:56;;;;;;;;;;;;;;;21.49;61.63;100808.53;4999587;28;4209;-62
2022/10/02 13:13:36;;;;;;;;;;;;;;;21.50;61.31;100804.25;5043484;28;4167;-61
2022/10/02 13:16:04;;;;;;;;;;;;;;;21.50;61.46;100799.22;5017184;28;4255;-62
2022/10/02 13:18:42;;;;;;;;;;;;;;;21.52;61.06;100789.94;5021877;28;5349;-61
2022/10/02 13:21:10;;;;;;;;;;;;;;;21.52;61.45;100795.69;5006451;28;5479;-61
2022/10/02 13:23:36;;;;;;;;;;;;;;;21.51;61.11;100800.00;5013878;28;4359;-63
2022/10/02 13:26:18;;;;;;;;;;;;;;;21.49;61.23;100802.78;4994929;28;4137;-62
2022/10/02 13:28:51;;;;;;;;;;;;;;;21.61;60.75;100800.38;5009136;28;4158;-71
2022/10/02 13:31:25;;;;;;;;;;;;;;;21.59;60.32;100799.56;5012963;28;4765;-66
2022/10/02 13:34:01;;;;;;;;;;;;;;;21.67;59.72;100806.41;5008360;28;4305;-64
2022/10/02 13:36:34;;;;;;;;;;;;;;;21.77;60.33;100805.31;5024935;28;5255;-62
2022/10/02 13:39:10;;;;;;;;;;;;;;;21.81;59.80;100803.34;5030784;28;3993;-64